createdAt,value
2018-11-23T00:01:11.956Z,1.17
2018-11-23T00:03:44.985Z,1.20
2018-11-23T00:06:17.834Z,1.19
2018-11-23T00:08:51.208Z,1.18
2018-11-23T00:11:25.310Z,1.15
2018-11-23T00:13:58.146Z,1.15
2018-11-23T00:16:31.940Z,1.15
2018-11-23T00:19:05.792Z,1.08
2018-11-23T00:21:38.634Z,1.00
2018-11-23T00:24:11.981Z,1.03
2018-11-23T00:26:45.566Z,0.99
2018-11-23T00:29:20.459Z,0.96
2018-11-23T00:31:54.207Z,1.01
2018-11-23T00:34:27.148Z,0.99
2018-11-23T00:37:01.043Z,0.97
2018-11-23T00:39:34.348Z,0.92
2018-11-23T00:42:07.586Z,0.89
2018-11-23T00:44:41.672Z,0.83
2018-11-23T00:47:16.468Z,0.79
2018-11-23T00:49:50.229Z,0.76
2018-11-23T00:52:23.106Z,0.72
2018-11-23T00:54:56.831Z,0.69
2018-11-23T00:57:30.061Z,0.61
2018-11-23T01:00:05.623Z,0.59
2018-11-23T01:02:38.731Z,0.64
2018-11-23T01:05:14.132Z,0.65
2018-11-23T01:07:48.057Z,0.60
2018-11-23T01:10:22.929Z,0.55
2018-11-23T01:12:56.641Z,0.56
2018-11-23T01:15:30.052Z,0.52
2018-11-23T01:18:03.773Z,0.45
2018-11-23T01:20:38.731Z,0.38
2018-11-23T01:23:12.047Z,0.40
2018-11-23T01:25:46.076Z,0.40
2018-11-23T01:28:18.772Z,0.36
2018-11-23T01:30:51.933Z,0.44
2018-11-23T01:33:25.150Z,0.52
2018-11-23T01:35:58.044Z,0.49
2018-11-23T01:38:30.860Z,0.46
2018-11-23T01:41:06.515Z,0.47
2018-11-23T01:43:39.417Z,0.47
2018-11-23T01:46:12.465Z,0.42
2018-11-23T01:48:45.866Z,0.41
2018-11-23T01:51:18.802Z,0.52
2018-11-23T01:53:52.006Z,0.60
2018-11-23T01:56:26.364Z,0.61
2018-11-23T01:58:59.181Z,0.63
2018-11-23T02:01:32.556Z,0.63
2018-11-23T02:04:06.021Z,0.61
2018-11-23T02:06:38.969Z,0.59
2018-11-23T02:09:11.747Z,0.64
2018-11-23T02:11:45.191Z,0.70
2018-11-23T02:14:17.916Z,0.73
2018-11-23T02:16:50.903Z,0.71
2018-11-23T02:19:24.311Z,0.66
2018-11-23T02:21:57.307Z,0.63
2018-11-23T02:24:30.050Z,0.65
2018-11-23T02:27:04.576Z,0.67
2018-11-23T02:29:37.350Z,0.64
2018-11-23T02:32:10.241Z,0.66
2018-11-23T02:34:44.004Z,0.71
2018-11-23T02:37:18.069Z,0.68
2018-11-23T02:39:50.820Z,0.62
2018-11-23T02:42:24.240Z,0.57
2018-11-23T02:44:57.055Z,0.53
2018-11-23T02:47:30.327Z,0.57
2018-11-23T02:50:06.961Z,0.55
2018-11-23T02:52:40.545Z,0.55
2018-11-23T02:55:14.503Z,0.55
2018-11-23T02:57:47.853Z,0.53
2018-11-23T03:00:22.063Z,0.59
2018-11-23T03:02:54.844Z,0.61
2018-11-23T03:05:29.196Z,0.59
2018-11-23T03:08:02.092Z,0.61
2018-11-23T03:10:34.881Z,0.62
2018-11-23T03:13:08.300Z,0.62
2018-11-23T03:15:41.432Z,0.67
2018-11-23T03:18:14.183Z,0.63
2018-11-23T03:20:47.411Z,0.68
2018-11-23T03:23:20.181Z,0.67
2018-11-23T03:25:53.017Z,0.61
2018-11-23T03:28:27.042Z,0.62
2018-11-23T03:30:59.924Z,0.60
2018-11-23T03:33:32.896Z,0.56
2018-11-23T03:36:06.601Z,0.54
2018-11-23T03:38:39.489Z,0.58
2018-11-23T03:41:12.336Z,0.63
2018-11-23T03:43:46.082Z,0.71
2018-11-23T03:46:18.955Z,0.79
2018-11-23T03:48:51.981Z,0.82
2018-11-23T03:51:26.348Z,0.83
2018-11-23T03:53:59.198Z,0.82
2018-11-23T03:56:32.236Z,0.85
2018-11-23T03:59:06.038Z,0.84
2018-11-23T04:01:38.848Z,0.91
2018-11-23T04:04:11.710Z,0.89
2018-11-23T04:06:45.369Z,0.93
2018-11-23T04:09:18.513Z,0.96
2018-11-23T04:11:51.209Z,0.94
2018-11-23T04:14:24.813Z,0.95
2018-11-23T04:16:57.631Z,0.93
2018-11-23T04:19:30.558Z,0.94
2018-11-23T04:22:04.284Z,0.99
2018-11-23T04:24:37.790Z,1.01
2018-11-23T04:27:10.587Z,1.08
2018-11-23T04:29:44.024Z,1.15
2018-11-23T04:32:17.127Z,1.17
2018-11-23T04:34:50.012Z,1.16
2018-11-23T04:37:23.436Z,1.14
2018-11-23T04:39:56.398Z,1.16
2018-11-23T04:42:29.182Z,1.16
2018-11-23T04:45:04.852Z,1.18
2018-11-23T04:47:38.508Z,1.19
2018-11-23T04:50:13.748Z,1.13
2018-11-23T04:52:47.094Z,1.13
2018-11-23T04:55:20.009Z,1.10
2018-11-23T04:57:53.778Z,1.11
2018-11-23T05:00:27.456Z,1.19
2018-11-23T05:03:01.181Z,1.28
2018-11-23T05:05:34.381Z,1.31
2018-11-23T05:08:09.310Z,1.32
2018-11-23T05:10:42.276Z,1.33
2018-11-23T05:13:15.045Z,1.37
2018-11-23T05:15:48.424Z,1.42
2018-11-23T05:18:21.167Z,1.47
2018-11-23T05:20:54.586Z,1.52
2018-11-23T05:23:28.144Z,1.69
2018-11-23T05:26:01.036Z,1.78
2018-11-23T05:28:33.788Z,1.84
2018-11-23T05:31:09.245Z,1.91
2018-11-23T05:33:41.985Z,1.88
2018-11-23T05:36:15.484Z,1.80
2018-11-23T05:38:50.357Z,1.73
2018-11-23T05:41:24.288Z,1.71
2018-11-23T05:43:57.137Z,1.64
2018-11-23T05:46:32.120Z,1.57
2018-11-23T05:49:08.117Z,1.49
2018-11-23T05:51:40.938Z,1.43
2018-11-23T05:54:14.500Z,1.36
2018-11-23T05:56:47.491Z,1.33
2018-11-23T05:59:20.285Z,1.32
2018-11-23T06:01:53.836Z,1.29
2018-11-23T06:04:26.654Z,1.32
2018-11-23T06:06:59.415Z,1.35
2018-11-23T06:09:32.395Z,1.40
2018-11-23T06:12:06.340Z,1.43
2018-11-23T06:14:39.573Z,1.41
2018-11-23T06:17:14.261Z,1.45
2018-11-23T06:19:47.465Z,1.54
2018-11-23T06:22:20.472Z,1.62
2018-11-23T06:24:54.419Z,1.61
2018-11-23T06:27:28.222Z,1.63
2018-11-23T06:30:00.996Z,1.67
2018-11-23T06:32:57.817Z,1.60
2018-11-23T06:35:31.169Z,1.53
2018-11-23T06:38:04.839Z,1.46
2018-11-23T06:40:37.696Z,1.40
2018-11-23T06:43:10.621Z,1.46
2018-11-23T06:45:44.393Z,1.49
2018-11-23T06:48:19.951Z,1.51
2018-11-23T06:50:53.849Z,1.55
2018-11-23T06:53:27.166Z,1.60
2018-11-23T06:56:03.452Z,1.60
2018-11-23T06:58:36.474Z,1.63
2018-11-23T07:01:10.901Z,1.65
2018-11-23T07:03:46.810Z,1.70
2018-11-23T07:06:19.730Z,1.80
2018-11-23T07:08:54.583Z,1.88
2018-11-23T07:11:27.504Z,1.95
2018-11-23T07:14:03.995Z,1.95
2018-11-23T07:16:37.612Z,1.95
2018-11-23T07:19:10.616Z,1.95
2018-11-23T07:21:43.345Z,1.93
2018-11-23T07:24:16.473Z,1.95
2018-11-23T07:26:49.668Z,1.95
2018-11-23T07:29:22.626Z,1.92
2018-11-23T07:31:56.884Z,1.87
2018-11-23T07:34:30.257Z,1.83
2018-11-23T07:37:03.601Z,1.80
2018-11-23T07:39:58.892Z,1.82
2018-11-23T07:42:33.008Z,1.78
2018-11-23T07:45:08.765Z,1.84
2018-11-23T07:47:41.581Z,1.93
2018-11-23T07:50:14.932Z,1.96
2018-11-23T07:52:48.157Z,2.06
2018-11-23T07:55:21.076Z,2.10
2018-11-23T07:57:54.545Z,2.14
2018-11-23T08:00:28.052Z,2.26
2018-11-23T08:03:01.781Z,2.37
2018-11-23T08:05:35.629Z,2.50
2018-11-23T08:08:09.597Z,2.60
2018-11-23T08:10:41.903Z,2.63
2018-11-23T08:13:14.911Z,2.68
2018-11-23T08:15:48.313Z,2.75
2018-11-23T08:18:23.172Z,2.80
2018-11-23T08:21:00.703Z,2.83
2018-11-23T08:23:37.430Z,2.88
2018-11-23T08:26:12.582Z,2.92
2018-11-23T08:28:47.101Z,2.98
2018-11-23T08:31:20.515Z,3.04
2018-11-23T08:33:54.574Z,3.10
2018-11-23T08:36:27.711Z,3.13
2018-11-23T08:39:04.685Z,3.25
2018-11-23T08:41:39.189Z,3.34
2018-11-23T08:44:12.420Z,3.44
2018-11-23T08:46:46.102Z,3.50
2018-11-23T08:49:20.377Z,3.66
2018-11-23T08:51:53.952Z,3.75
2018-11-23T08:54:26.745Z,3.85
2018-11-23T08:57:02.264Z,3.90
2018-11-23T08:59:35.406Z,3.95
2018-11-23T09:02:08.918Z,4.09
2018-11-23T09:04:41.825Z,4.22
2018-11-23T09:07:16.285Z,4.29
2018-11-23T09:09:50.838Z,4.38
2018-11-23T09:12:25.308Z,4.51
2018-11-23T09:15:10.887Z,4.60
2018-11-23T09:17:47.797Z,4.66
2018-11-23T09:20:22.867Z,4.74
2018-11-23T09:22:56.486Z,4.78
2018-11-23T09:25:30.317Z,4.88
2018-11-23T09:28:04.012Z,4.95
2018-11-23T09:30:38.358Z,5.04
2018-11-23T09:33:12.797Z,5.13
2018-11-23T09:35:52.903Z,5.19
2018-11-23T09:38:27.844Z,5.30
2018-11-23T09:41:03.378Z,5.47
2018-11-23T09:43:38.407Z,5.62
2018-11-23T09:46:14.469Z,5.75
2018-11-23T09:48:47.816Z,5.86
2018-11-23T09:51:22.424Z,5.92
2018-11-23T09:53:56.812Z,5.96
2018-11-23T09:56:30.507Z,6.16
2018-11-23T09:59:05.809Z,6.90
2018-11-23T10:01:39.400Z,7.74
2018-11-23T10:04:12.807Z,8.38
2018-11-23T10:06:47.931Z,8.92
2018-11-23T10:09:22.978Z,9.31
2018-11-23T10:11:57.420Z,9.61
2018-11-23T10:14:30.201Z,9.85
2018-11-23T10:17:03.945Z,10.08
2018-11-23T10:19:39.119Z,10.24
2018-11-23T10:22:12.214Z,10.41
2018-11-23T10:24:46.701Z,10.52
2018-11-23T10:27:21.321Z,10.60
2018-11-23T10:29:55.389Z,10.74
2018-11-23T10:32:30.361Z,10.89
2018-11-23T10:35:03.259Z,10.86
2018-11-23T10:37:38.290Z,10.94
2018-11-23T10:40:17.261Z,11.09
2018-11-23T10:42:51.201Z,11.39
2018-11-23T10:45:26.146Z,11.56
2018-11-23T10:48:03.857Z,11.83
2018-11-23T10:50:40.276Z,12.02
2018-11-23T10:53:15.792Z,12.13
2018-11-23T10:55:49.148Z,12.42
2018-11-23T10:58:22.394Z,12.49
2018-11-23T11:01:01.526Z,12.53
2018-11-23T11:03:58.881Z,12.16
2018-11-23T11:06:40.554Z,11.86
2018-11-23T11:09:14.673Z,11.96
2018-11-23T11:11:48.160Z,12.26
2018-11-23T11:14:21.425Z,12.55
2018-11-23T11:16:55.267Z,12.90
2018-11-23T11:19:29.523Z,13.21
2018-11-23T11:22:03.606Z,13.27
2018-11-23T11:24:36.937Z,13.30
2018-11-23T11:27:10.466Z,13.36
2018-11-23T11:29:43.717Z,13.52
2018-11-23T11:32:16.528Z,13.60
2018-11-23T11:34:51.778Z,13.82
2018-11-23T11:37:25.358Z,13.91
2018-11-23T11:39:59.717Z,13.94
2018-11-23T11:42:34.853Z,13.81
2018-11-23T11:45:14.937Z,13.84
2018-11-23T11:47:49.439Z,14.01
2018-11-23T11:50:22.700Z,14.05
2018-11-23T11:52:56.727Z,13.96
2018-11-23T11:55:31.922Z,13.92
2018-11-23T11:58:05.680Z,14.14
2018-11-23T12:00:39.813Z,14.23
2018-11-23T12:03:14.713Z,14.32
2018-11-23T12:05:49.199Z,14.40
2018-11-23T12:08:24.255Z,14.35
2018-11-23T12:10:57.964Z,14.36
2018-11-23T12:13:34.583Z,14.51
2018-11-23T12:16:08.081Z,14.52
2018-11-23T12:18:41.781Z,14.60
2018-11-23T12:21:14.537Z,14.66
2018-11-23T12:23:48.447Z,14.79
2018-11-23T12:26:22.977Z,14.74
2018-11-23T12:28:57.421Z,14.75
2018-11-23T12:31:31.551Z,14.74
2018-11-23T12:34:05.473Z,14.81
2018-11-23T12:36:39.708Z,14.82
2018-11-23T12:39:12.647Z,14.77
2018-11-23T12:41:51.556Z,14.86
2018-11-23T12:44:26.481Z,14.95
2018-11-23T12:47:00.764Z,15.03
2018-11-23T12:49:33.677Z,15.01
2018-11-23T12:52:07.704Z,14.84
2018-11-23T12:54:41.324Z,14.73
2018-11-23T12:57:14.509Z,14.78
2018-11-23T12:59:50.735Z,14.98
2018-11-23T13:02:26.255Z,15.10
2018-11-23T13:04:59.268Z,15.19
2018-11-23T13:07:32.526Z,15.19
2018-11-23T13:10:09.275Z,15.18
2018-11-23T13:12:44.420Z,15.29
2018-11-23T13:15:17.249Z,15.45
2018-11-23T13:17:50.988Z,15.58
2018-11-23T13:20:25.847Z,15.60
2018-11-23T13:22:59.193Z,15.63
2018-11-23T13:25:33.108Z,15.68
2018-11-23T13:28:06.717Z,15.58
2018-11-23T13:30:41.783Z,15.57
2018-11-23T13:33:16.685Z,15.57
2018-11-23T13:35:53.364Z,15.60
2018-11-23T13:38:28.218Z,15.60
2018-11-23T13:41:01.561Z,15.56
2018-11-23T13:43:35.770Z,15.43
2018-11-23T13:46:09.860Z,15.30
2018-11-23T13:48:43.731Z,15.14
2018-11-23T13:51:17.509Z,15.18
2018-11-23T13:53:51.576Z,15.30
2018-11-23T13:56:25.726Z,15.41
2018-11-23T13:58:59.205Z,15.27
2018-11-23T14:01:34.458Z,15.09
2018-11-23T14:04:08.369Z,14.96
2018-11-23T14:06:44.107Z,14.90
2018-11-23T14:09:18.108Z,14.96
2018-11-23T14:11:51.333Z,14.96
2018-11-23T14:14:25.815Z,15.00
2018-11-23T14:17:01.934Z,15.00
2018-11-23T14:19:39.503Z,14.99
2018-11-23T14:22:15.304Z,14.89
2018-11-23T14:24:50.593Z,14.81
2018-11-23T14:27:26.596Z,14.75
2018-11-23T14:30:03.646Z,14.62
2018-11-23T14:32:39.844Z,14.55
2018-11-23T14:35:14.980Z,14.49
2018-11-23T14:37:53.098Z,14.46
2018-11-23T14:40:27.046Z,14.42
2018-11-23T14:43:00.537Z,14.26
2018-11-23T14:45:34.749Z,14.14
2018-11-23T14:48:09.196Z,14.03
2018-11-23T14:50:49.756Z,14.04
2018-11-23T14:53:22.839Z,13.96
2018-11-23T14:55:57.433Z,13.77
2018-11-23T14:58:30.272Z,13.58
2018-11-23T15:01:05.377Z,13.48
2018-11-23T15:03:38.862Z,13.34
2018-11-23T15:06:13.413Z,13.17
2018-11-23T15:08:48.542Z,13.03
2018-11-23T15:11:22.481Z,12.91
2018-11-23T15:13:56.079Z,12.68
2018-11-23T15:16:31.633Z,12.40
2018-11-23T15:19:04.989Z,12.10
2018-11-23T15:21:43.803Z,11.78
2018-11-23T15:24:21.550Z,11.44
2018-11-23T15:26:55.029Z,11.10
2018-11-23T15:29:28.352Z,10.80
2018-11-23T15:32:01.574Z,10.54
2018-11-23T15:34:35.819Z,10.28
2018-11-23T15:37:10.567Z,10.02
2018-11-23T15:39:43.476Z,9.79
2018-11-23T15:42:18.501Z,9.57
2018-11-23T15:44:53.863Z,9.35
2018-11-23T15:47:28.037Z,9.15
2018-11-23T15:50:00.887Z,8.98
2018-11-23T15:52:38.245Z,8.79
2018-11-23T15:55:16.808Z,8.59
2018-11-23T15:57:54.821Z,8.45
2018-11-23T16:00:37.383Z,8.26
2018-11-23T16:03:13.808Z,8.09
2018-11-23T16:05:48.947Z,7.92
2018-11-23T16:08:27.566Z,7.73
2018-11-23T16:11:01.724Z,7.59
2018-11-23T16:13:43.359Z,7.46
2018-11-23T16:16:18.970Z,7.31
2018-11-23T16:18:57.622Z,7.14
2018-11-23T16:21:32.960Z,6.98
2018-11-23T16:24:07.219Z,6.85
2018-11-23T16:26:42.317Z,6.70
2018-11-23T16:29:16.720Z,6.62
2018-11-23T16:31:51.591Z,6.74
2018-11-23T16:34:25.318Z,6.80
2018-11-23T16:37:01.040Z,6.86
2018-11-23T16:39:35.572Z,6.68
2018-11-23T16:42:09.678Z,6.41
2018-11-23T16:44:44.283Z,6.19
2018-11-23T16:47:20.312Z,6.00
2018-11-23T16:49:54.747Z,5.82
2018-11-23T16:52:28.664Z,5.88
2018-11-23T16:55:09.574Z,5.81
2018-11-23T16:57:46.234Z,5.62
2018-11-23T17:00:23.784Z,5.48
2018-11-23T17:03:00.089Z,5.29
2018-11-23T17:05:42.671Z,5.12
2018-11-23T17:08:21.249Z,4.99
2018-11-23T17:11:01.549Z,4.88
2018-11-23T17:13:35.826Z,4.82
2018-11-23T17:16:10.457Z,4.72
2018-11-23T17:18:48.800Z,4.64
2018-11-23T17:21:26.546Z,4.61
2018-11-23T17:24:05.392Z,4.52
2018-11-23T17:26:38.521Z,4.41
2018-11-23T17:29:14.421Z,4.31
2018-11-23T17:31:49.593Z,4.28
2018-11-23T17:34:23.590Z,4.18
2018-11-23T17:36:57.083Z,4.18
2018-11-23T17:39:31.717Z,4.10
2018-11-23T17:42:10.007Z,4.13
2018-11-23T17:44:45.026Z,4.15
2018-11-23T17:47:21.294Z,4.07
2018-11-23T17:49:57.523Z,3.98
2018-11-23T17:52:30.898Z,3.86
2018-11-23T17:55:08.416Z,3.86
2018-11-23T17:57:42.781Z,3.85
2018-11-23T18:00:22.167Z,3.79
2018-11-23T18:02:56.716Z,3.72
2018-11-23T18:05:35.343Z,3.63
2018-11-23T18:08:11.626Z,3.61
2018-11-23T18:10:54.159Z,3.61
2018-11-23T18:13:29.674Z,3.51
2018-11-23T18:16:06.257Z,3.41
2018-11-23T18:18:39.951Z,3.44
2018-11-23T18:21:15.296Z,3.53
2018-11-23T18:23:52.134Z,3.68
2018-11-23T18:26:27.881Z,3.81
2018-11-23T18:29:02.839Z,4.11
2018-11-23T18:31:42.044Z,4.31
2018-11-23T18:34:16.631Z,4.45
2018-11-23T18:36:51.441Z,4.67
2018-11-23T18:39:27.608Z,4.93
2018-11-23T18:42:03.754Z,4.96
2018-11-23T18:45:21.081Z,5.00
2018-11-23T18:48:07.253Z,5.00
2018-11-23T18:50:41.212Z,4.96
2018-11-23T18:53:16.135Z,4.91
2018-11-23T18:55:53.260Z,4.82
2018-11-23T18:58:28.545Z,4.75
2018-11-23T19:01:04.390Z,4.71
2018-11-23T19:03:40.594Z,4.50
2018-11-23T19:06:15.538Z,4.20
2018-11-23T19:08:54.476Z,3.93
2018-11-23T19:11:27.763Z,3.72
2018-11-23T19:14:04.113Z,3.68
2018-11-23T19:16:41.605Z,3.71
2018-11-23T19:19:21.742Z,3.59
2018-11-23T19:21:55.573Z,3.54
2018-11-23T19:24:30.585Z,3.54
2018-11-23T19:27:03.984Z,3.44
2018-11-23T19:29:41.391Z,3.28
2018-11-23T19:32:17.808Z,3.10
2018-11-23T19:34:56.604Z,2.96
2018-11-23T19:37:30.716Z,2.85
2018-11-23T19:40:06.951Z,2.81
2018-11-23T19:42:43.753Z,2.79
2018-11-23T19:45:18.145Z,2.68
2018-11-23T19:47:53.227Z,2.62
2018-11-23T19:50:27.424Z,2.61
2018-11-23T19:53:03.720Z,2.59
2018-11-23T19:55:38.678Z,2.47
2018-11-23T19:58:13.224Z,2.51
2018-11-23T20:01:02.281Z,2.46
2018-11-23T20:03:37.460Z,2.34
2018-11-23T20:06:13.083Z,2.22
2018-11-23T20:08:52.626Z,2.20
2018-11-23T20:11:27.534Z,2.25
2018-11-23T20:14:04.313Z,2.32
2018-11-23T20:16:41.267Z,2.33
2018-11-23T20:19:14.297Z,2.40
2018-11-23T20:21:50.872Z,2.47
2018-11-23T20:24:27.540Z,2.51
2018-11-23T20:27:01.523Z,2.59
2018-11-23T20:29:38.462Z,2.53
2018-11-23T20:32:20.103Z,2.31
2018-11-23T20:34:57.302Z,2.18
2018-11-23T20:37:31.879Z,2.05
2018-11-23T20:40:10.307Z,1.96
2018-11-23T20:42:49.657Z,1.97
2018-11-23T20:45:22.981Z,1.92
2018-11-23T20:48:06.570Z,1.91
2018-11-23T20:50:43.210Z,1.77
2018-11-23T20:53:18.201Z,1.62
2018-11-23T20:55:53.485Z,1.60
2018-11-23T20:58:34.030Z,1.67
2018-11-23T21:01:09.325Z,1.79
2018-11-23T21:03:43.719Z,1.94
2018-11-23T21:06:19.147Z,2.00
2018-11-23T23:45:56.622Z,0.39
2018-11-23T23:48:32.756Z,0.38
2018-11-23T23:51:10.494Z,0.49
2018-11-23T23:54:07.954Z,0.53
2018-11-23T23:56:53.697Z,0.52
